Callao, Missouri
Current Conditions -  °F | °C
As of 10:55 PM on Monday 26 Jan 2015 (Local Time) from KIRK Reporting Station
Clear Clear  
Wind Chill: 34°   Ceiling: Unl
Heat Index: 40°   Visibility: 10mi
Dew Point: 34°   Wind: 8mph
Humidity: 79%   Direction: 340°NNW
Pressure: 29.95"   Gusts: NA
Location:  39.76°N, 92.62°W
Report Text: KIRK 270455Z AUTO 34007KT 10SM CLR 04/01 A2995 RMK AO2 SLP152 T00440011
Loading
Personal Weather Stations






























Interactive Weather Map New forecast layout! Learn more

10-Day Weather Forecast

Advertisements
Track Severe Weather on mobile